This is the latest recevied weather packets stored in our database for station/object G6LTT-13. If no packets are shown the sender has not sent any weather packets the latest 10 day(s).
| Time | Temp. | Humidity | Pressure | Rain* | Wind** | Luminosity | Snow |
|---|---|---|---|---|---|---|---|
| 1787926907 | 22.22° C | 62% | 1033.8 hPa | 0.25 mm | - | - | - |
| 1787925107 | 22.78° C | 50% | 1033.6 hPa | 0 mm | - | - | - |
| 1787923307 | 23.33° C | 49% | 1033.6 hPa | 0 mm | - | - | - |
| 1787921507 | 23.33° C | 48% | 1033.5 hPa | 0 mm | - | - | - |
| 1787919707 | 22.22° C | 52% | 1033.6 hPa | 0 mm | - | - | - |
| 1787917909 | 23.33° C | 48% | 1033.9 hPa | 0 mm | - | - | - |
| 1787916107 | 22.22° C | 50% | 1034.2 hPa | 0 mm | - | - | - |
| 1787914307 | 21.67° C | 54% | 1034.2 hPa | 0 mm | - | - | - |
| 1787912507 | 21.67° C | 56% | 1034.2 hPa | 0 mm | - | - | - |
| 1787910707 | 20.56° C | 64% | 1034.4 hPa | 0 mm | - | - | - |
| 1787908907 | 19.44° C | 71% | 1034.5 hPa | 0 mm | - | - | - |
| 1787907107 | 18.89° C | 74% | 1034.3 hPa | 0 mm | - | - | - |
| 1787905307 | 17.78° C | 79% | 1034.6 hPa | 0 mm | - | - | - |
| 1787903507 | 16.67° C | 85% | 1034.5 hPa | 0 mm | - | - | - |
| 1787901707 | 15.56° C | 90% | 1034.6 hPa | 0 mm | - | - | - |
| 1787899907 | 15° C | 92% | 1034.3 hPa | 0 mm | - | - | - |
| 1787898107 | 15° C | 93% | 1034.2 hPa | 0 mm | - | - | - |
| 1787896308 | 15° C | 94% | 1034.5 hPa | 0 mm | - | - | - |
| 1787894507 | 14.44° C | 95% | 1034.4 hPa | 0 mm | - | - | - |
| 1787892707 | 14.44° C | 94% | 1034.6 hPa | 0 mm | - | - | - |
| 1787890907 | 14.44° C | 93% | 1034.9 hPa | 0 mm | - | - | - |
| 1787889107 | 15° C | 92% | 1035.1 hPa | 0 mm | - | - | - |
| 1787887307 | 15.56° C | 90% | 1035.4 hPa | 0 mm | - | - | - |
| 1787885507 | 15.56° C | 89% | 1035.5 hPa | 0 mm | - | - | - |
| 1787883707 | 16.11° C | 87% | 1035.2 hPa | 0 mm | - | - | - |
* Rain latest hour (hover to see other rain measurements)
** Current wind speed in m/s (hover to see current wind gust speed)